createdAt,value
2018-04-11T00:00:05.699Z,43.70
2018-04-11T00:02:33.332Z,40.37
2018-04-11T00:05:01.734Z,39.87
2018-04-11T00:07:29.355Z,37.07
2018-04-11T00:09:56.987Z,35.43
2018-04-11T00:12:24.615Z,32.27
2018-04-11T00:14:53.012Z,30.90
2018-04-11T00:17:20.656Z,29.97
2018-04-11T00:19:49.779Z,29.57
2018-04-11T00:22:17.415Z,27.57
2018-04-11T00:24:45.047Z,26.33
2018-04-11T00:27:12.679Z,28.60
2018-04-11T00:29:40.310Z,25.57
2018-04-11T00:32:07.983Z,25.70
2018-04-11T00:34:35.610Z,26.27
2018-04-11T00:37:03.238Z,24.63
2018-04-11T00:39:30.875Z,23.80
2018-04-11T00:41:58.499Z,24.60
2018-04-11T00:44:26.132Z,23.33
2018-04-11T00:46:53.907Z,24.53
2018-04-11T00:49:21.531Z,24.63
2018-04-11T00:51:49.167Z,23.17
2018-04-11T00:54:16.788Z,23.60
2018-04-11T00:56:44.419Z,24.23
2018-04-11T00:59:12.047Z,25.03
2018-04-11T01:01:39.679Z,23.93
2018-04-11T01:04:08.083Z,24.70
2018-04-11T01:06:35.710Z,23.47
2018-04-11T01:09:03.335Z,24.47
2018-04-11T01:11:30.962Z,25.03
2018-04-11T01:13:59.439Z,23.67
2018-04-11T01:16:27.062Z,24.77
2018-04-11T01:18:54.694Z,24.47
2018-04-11T01:21:22.323Z,23.67
2018-04-11T01:23:49.955Z,25.37
2018-04-11T01:26:17.579Z,24.40
2018-04-11T01:28:45.215Z,25.37
2018-04-11T01:31:12.841Z,24.33
2018-04-11T01:33:40.459Z,24.10
2018-04-11T01:39:00.456Z,24.33
2018-04-11T01:41:28.079Z,23.83
2018-04-11T01:43:55.703Z,24.03
2018-04-11T01:46:24.103Z,21.97
2018-04-11T01:48:51.730Z,23.33
2018-04-11T01:51:19.359Z,22.97
2018-04-11T01:53:46.991Z,23.87
2018-04-11T01:56:14.627Z,23.57
2018-04-11T01:58:42.247Z,23.53
2018-04-11T02:01:09.879Z,24.00
2018-04-11T02:03:38.267Z,24.70
2018-04-11T02:06:06.668Z,23.60
2018-04-11T02:08:34.303Z,24.00
2018-04-11T02:11:01.930Z,25.47
2018-04-11T02:13:29.551Z,25.20
2018-04-11T02:15:57.951Z,24.63
2018-04-11T02:18:25.579Z,25.57
2018-04-11T02:20:53.202Z,24.60
2018-04-11T02:23:20.838Z,26.03
2018-04-11T02:25:51.851Z,24.90
2018-04-11T02:28:19.483Z,23.03
2018-04-11T02:30:47.108Z,24.10
2018-04-11T02:33:14.739Z,24.10
2018-04-11T02:35:42.367Z,23.60
2018-04-11T02:38:09.999Z,23.83
2018-04-11T02:40:38.387Z,25.57
2018-04-11T02:43:06.788Z,24.20
2018-04-11T02:45:34.415Z,24.73
2018-04-11T02:48:02.044Z,25.27
2018-04-11T02:50:29.666Z,27.87
2018-04-11T02:52:58.063Z,25.80
2018-04-11T02:55:25.683Z,25.13
2018-04-11T02:57:53.307Z,25.97
2018-04-11T03:00:21.215Z,27.97
2018-04-11T03:02:48.842Z,27.10
2018-04-11T03:05:16.470Z,26.60
2018-04-11T03:07:44.102Z,27.70
2018-04-11T03:10:11.732Z,27.07
2018-04-11T03:12:39.361Z,27.77
2018-04-11T03:15:06.975Z,27.17
2018-04-11T03:17:34.603Z,28.77
2018-04-11T03:20:02.524Z,27.47
2018-04-11T03:22:30.151Z,27.57
2018-04-11T03:24:58.551Z,26.63
2018-04-11T03:27:26.184Z,27.00
2018-04-11T03:29:53.815Z,27.47
2018-04-11T03:32:21.456Z,27.93
2018-04-11T03:34:49.071Z,26.93
2018-04-11T03:37:16.719Z,26.90
2018-04-11T03:39:44.355Z,26.53
2018-04-11T03:42:11.979Z,27.90
2018-04-11T03:44:39.611Z,27.30
2018-04-11T03:47:07.245Z,26.77
2018-04-11T03:49:34.866Z,26.90
2018-04-11T03:52:02.493Z,28.10
2018-04-11T03:54:30.114Z,27.77
2018-04-11T03:56:57.744Z,25.90
2018-04-11T03:59:25.392Z,27.37
2018-04-11T04:01:53.008Z,32.45
2018-04-11T04:04:20.639Z,29.60
2018-04-11T04:06:48.270Z,30.47
2018-04-11T04:09:15.891Z,30.47
2018-04-11T04:11:43.519Z,31.60
2018-04-11T04:14:23.039Z,31.03
2018-04-11T04:17:02.568Z,29.73
2018-04-11T04:19:42.823Z,30.40
2018-04-11T04:22:11.206Z,28.77
2018-04-11T04:24:39.601Z,31.33
2018-04-11T04:27:07.236Z,30.37
2018-04-11T04:29:34.863Z,29.77
2018-04-11T04:32:04.208Z,31.60
2018-04-11T04:34:32.612Z,30.33
2018-04-11T04:37:01.014Z,32.20
2018-04-11T04:39:28.634Z,31.23
2018-04-11T04:41:56.267Z,30.07
2018-04-11T04:44:34.783Z,30.33
2018-04-11T04:47:02.413Z,30.63
2018-04-11T04:49:30.040Z,30.40
2018-04-11T04:51:59.171Z,30.93
2018-04-11T04:54:33.585Z,32.17
2018-04-11T04:57:01.175Z,32.37
2018-04-11T04:59:28.803Z,31.33
2018-04-11T05:01:56.441Z,30.93
2018-04-11T05:04:24.066Z,31.57
2018-04-11T05:06:51.691Z,31.07
2018-04-11T05:09:19.327Z,31.17
2018-04-11T05:11:46.960Z,31.80
2018-04-11T05:14:14.640Z,31.47
2018-04-11T05:16:42.220Z,32.23
2018-04-11T05:19:09.891Z,33.37
2018-04-11T05:21:37.522Z,34.93
2018-04-11T05:24:05.142Z,36.57
2018-04-11T05:26:32.777Z,37.67
2018-04-11T05:29:00.408Z,38.03
2018-04-11T05:31:28.803Z,37.33
2018-04-11T05:33:56.203Z,37.27
2018-04-11T05:36:29.891Z,38.87
2018-04-11T05:39:02.359Z,37.97
2018-04-11T05:41:29.980Z,38.27
2018-04-11T05:43:57.598Z,38.77
2018-04-11T05:46:25.631Z,40.53
2018-04-11T05:48:54.031Z,38.97
2018-04-11T05:51:21.674Z,37.97
2018-04-11T05:53:49.661Z,39.53
2018-04-11T05:56:17.288Z,37.93
2018-04-11T05:58:44.910Z,39.63
2018-04-11T06:01:12.539Z,39.87
2018-04-11T06:03:40.171Z,37.77
2018-04-11T06:06:07.795Z,40.27
2018-04-11T06:08:36.191Z,40.03
2018-04-11T06:11:03.818Z,44.63
2018-04-11T06:13:31.442Z,45.50
2018-04-11T06:15:59.077Z,41.33
2018-04-11T06:18:26.707Z,41.43
2018-04-11T06:20:54.334Z,39.37
2018-04-11T06:23:21.955Z,37.53
2018-04-11T06:25:49.589Z,38.60
2018-04-11T06:28:17.204Z,35.97
2018-04-11T06:30:45.606Z,36.13
2018-04-11T06:33:13.235Z,36.33
2018-04-11T06:35:40.862Z,36.80
2018-04-11T06:38:08.546Z,35.67
2018-04-11T06:40:36.166Z,38.17
2018-04-11T06:43:03.803Z,38.37
2018-04-11T06:45:31.428Z,39.20
2018-04-11T06:47:59.058Z,42.23
2018-04-11T06:50:26.683Z,52.13
2018-04-11T06:52:54.322Z,54.57
2018-04-11T06:55:21.943Z,60.70
2018-04-11T06:57:50.343Z,59.10
2018-04-11T07:00:18.174Z,61.63
2018-04-11T07:02:45.799Z,59.87
2018-04-11T07:05:13.442Z,63.10
2018-04-11T07:07:41.071Z,64.17
2018-04-11T07:10:08.907Z,69.53
2018-04-11T07:12:36.535Z,72.57
2018-04-11T07:15:04.175Z,70.50
2018-04-11T07:17:31.794Z,74.50
2018-04-11T07:19:59.423Z,75.23
2018-04-11T07:22:27.909Z,73.57
2018-04-11T07:24:56.311Z,73.27
2018-04-11T07:27:25.103Z,72.87
2018-04-11T07:29:52.731Z,69.43
2018-04-11T07:32:20.359Z,71.47
2018-04-11T07:34:47.987Z,68.57
2018-04-11T07:37:16.387Z,74.07
2018-04-11T07:39:44.011Z,73.13
2018-04-11T07:42:11.643Z,75.03
2018-04-11T07:44:39.279Z,76.07
2018-04-11T07:47:06.910Z,74.13
2018-04-11T07:49:34.539Z,73.73
2018-04-11T07:52:02.175Z,74.07
2018-04-11T07:54:29.810Z,71.17
2018-04-11T07:56:57.435Z,71.33
2018-04-11T07:59:25.062Z,72.30
2018-04-11T08:01:53.451Z,66.87
2018-04-11T08:04:21.092Z,69.33
2018-04-11T08:06:48.728Z,66.37
2018-04-11T08:09:16.360Z,70.40
2018-04-11T08:11:43.986Z,68.97
2018-04-11T08:14:11.672Z,67.93
2018-04-11T08:16:40.076Z,65.97
2018-04-11T08:19:07.707Z,67.30
2018-04-11T08:21:35.343Z,65.47
2018-04-11T08:24:02.970Z,66.20
2018-04-11T08:26:30.603Z,66.30
2018-04-11T08:28:58.264Z,63.97
2018-04-11T08:31:25.899Z,65.07
2018-04-11T08:33:53.535Z,63.00
2018-04-11T08:36:21.168Z,64.80
2018-04-11T08:38:48.796Z,63.60
2018-04-11T08:41:16.440Z,59.27
2018-04-11T08:43:44.071Z,60.73
2018-04-11T08:46:11.695Z,61.70
2018-04-11T08:48:39.339Z,59.10
2018-04-11T08:51:06.964Z,61.07
2018-04-11T08:53:34.591Z,56.70
2018-04-11T08:56:02.231Z,54.33
2018-04-11T08:58:29.859Z,53.17
2018-04-11T09:00:57.487Z,54.87
2018-04-11T09:03:25.116Z,52.03
2018-04-11T09:05:53.510Z,53.93
2018-04-11T09:08:21.131Z,51.53
2018-04-11T09:10:48.755Z,52.80
2018-04-11T09:13:16.382Z,51.50
2018-04-11T09:15:44.011Z,52.07
2018-04-11T09:18:11.636Z,43.50
2018-04-11T09:20:40.024Z,44.53
2018-04-11T09:23:07.652Z,42.27
2018-04-11T09:25:35.279Z,47.07
2018-04-11T09:28:02.910Z,47.33
2018-04-11T09:30:30.541Z,49.17
2018-04-11T09:32:58.206Z,49.77
2018-04-11T09:35:25.791Z,51.73
2018-04-11T09:37:53.419Z,51.17
2018-04-11T09:40:21.051Z,53.40
2018-04-11T09:42:48.674Z,46.67
2018-04-11T09:45:16.307Z,46.67
2018-04-11T09:47:43.935Z,45.07
2018-04-11T09:50:11.568Z,42.07
2018-04-11T09:52:39.203Z,43.83
2018-04-11T09:55:06.827Z,45.07
2018-04-11T09:57:35.227Z,43.53
2018-04-11T10:00:02.970Z,45.97
2018-04-11T10:02:30.590Z,45.63
2018-04-11T10:04:58.381Z,42.50
2018-04-11T10:07:25.983Z,41.20
2018-04-11T10:09:54.446Z,41.60
2018-04-11T10:12:22.136Z,33.47
2018-04-11T10:14:49.793Z,31.13
2018-04-11T10:17:17.443Z,30.20
2018-04-11T10:19:45.160Z,29.10
2018-04-11T10:22:12.857Z,29.27
2018-04-11T10:24:40.496Z,25.87
2018-04-11T10:27:08.178Z,26.20
2018-04-11T10:29:35.847Z,24.90
2018-04-11T10:32:03.493Z,24.23
2018-04-11T10:34:31.146Z,24.20
2018-04-11T10:36:58.789Z,23.60
2018-04-11T10:39:26.438Z,22.83
2018-04-11T10:41:54.079Z,22.97
2018-04-11T10:44:21.769Z,23.27
2018-04-11T10:46:49.429Z,22.37
2018-04-11T10:49:17.108Z,19.17
2018-04-11T10:51:44.780Z,16.07
2018-04-11T10:54:12.383Z,14.73
2018-04-11T10:56:40.181Z,12.80
2018-04-11T10:59:07.826Z,13.10
2018-04-11T11:01:36.186Z,13.07
2018-04-11T11:04:04.639Z,13.80
2018-04-11T11:06:32.276Z,13.90
2018-04-11T11:08:59.945Z,13.77
2018-04-11T11:11:27.606Z,13.37
2018-04-11T11:13:55.268Z,13.97
2018-04-11T11:16:22.945Z,13.33
2018-04-11T11:18:50.595Z,13.53
2018-04-11T11:21:18.255Z,13.63
2018-04-11T11:23:46.702Z,13.70
2018-04-11T11:26:14.361Z,14.27
2018-04-11T11:28:42.025Z,14.33
2018-04-11T11:31:09.677Z,15.00
2018-04-11T11:33:37.329Z,15.53
2018-04-11T11:36:04.993Z,14.60
2018-04-11T11:38:32.651Z,15.40
2018-04-11T11:41:00.323Z,15.33
2018-04-11T11:43:27.935Z,16.13
2018-04-11T11:45:55.561Z,14.87
2018-04-11T11:48:23.179Z,15.60
2018-04-11T11:50:50.802Z,15.90
2018-04-11T11:53:18.431Z,17.20
2018-04-11T11:55:46.064Z,16.07
2018-04-11T11:58:13.693Z,16.30
2018-04-11T12:00:41.328Z,16.27
2018-04-11T12:03:08.959Z,14.43
2018-04-11T12:05:36.587Z,15.77
2018-04-11T12:08:04.213Z,16.27
2018-04-11T12:10:31.843Z,14.97
2018-04-11T12:12:59.470Z,15.40
2018-04-11T12:15:27.100Z,15.33
2018-04-11T12:17:54.727Z,15.67
2018-04-11T12:20:22.359Z,15.90
2018-04-11T12:22:49.991Z,15.60
2018-04-11T12:25:17.614Z,16.03
2018-04-11T12:27:45.247Z,15.50
2018-04-11T12:30:12.875Z,15.87
2018-04-11T12:32:40.500Z,16.67
2018-04-11T12:35:08.134Z,16.03
2018-04-11T12:37:35.767Z,16.63
2018-04-11T12:40:03.390Z,17.13
2018-04-11T12:42:31.019Z,16.53
2018-04-11T12:44:58.647Z,16.57
2018-04-11T12:47:26.276Z,16.80
2018-04-11T12:49:53.910Z,16.93
2018-04-11T12:52:21.544Z,16.63
2018-04-11T12:54:49.170Z,16.53
2018-04-11T12:57:17.569Z,16.23
2018-04-11T12:59:45.191Z,15.90
2018-04-11T13:02:12.823Z,16.23
2018-04-11T13:04:40.455Z,16.27
2018-04-11T13:07:08.848Z,16.77
2018-04-11T13:09:36.462Z,17.00
2018-04-11T13:12:04.095Z,16.50
2018-04-11T13:14:31.723Z,16.00
2018-04-11T13:16:59.342Z,16.23
2018-04-11T13:19:26.970Z,15.43
2018-04-11T13:21:54.595Z,17.57
2018-04-11T13:24:22.214Z,16.17
2018-04-11T13:26:49.842Z,16.60
2018-04-11T13:29:17.486Z,16.77
2018-04-11T13:31:45.114Z,16.53
2018-04-11T13:34:12.743Z,16.77
2018-04-11T13:36:40.384Z,16.20
2018-04-11T13:39:07.986Z,16.60
2018-04-11T13:41:36.383Z,15.77
2018-04-11T13:44:04.007Z,17.60
2018-04-11T13:46:31.628Z,15.97
2018-04-11T13:48:59.247Z,15.23
2018-04-11T13:51:26.871Z,14.43
2018-04-11T13:53:54.514Z,14.37
2018-04-11T13:56:22.946Z,14.33
2018-04-11T13:58:50.523Z,14.47
2018-04-11T14:01:18.159Z,14.53
2018-04-11T14:03:45.787Z,15.20
2018-04-11T14:06:14.188Z,15.50
2018-04-11T14:08:41.811Z,14.80
2018-04-11T14:11:09.442Z,14.70
2018-04-11T14:13:37.072Z,14.63
2018-04-11T14:16:04.753Z,14.90
2018-04-11T14:18:32.385Z,15.23
2018-04-11T14:21:00.010Z,13.47
2018-04-11T14:23:27.633Z,13.97
2018-04-11T14:25:56.073Z,13.90
2018-04-11T14:28:23.664Z,14.53
2018-04-11T14:30:52.051Z,13.00
2018-04-11T14:33:20.458Z,12.93
2018-04-11T14:35:48.082Z,12.07
2018-04-11T14:38:15.712Z,11.33
2018-04-11T14:40:43.333Z,11.70
2018-04-11T14:43:11.722Z,11.20
2018-04-11T14:45:40.119Z,10.93
2018-04-11T14:48:07.738Z,10.10
2018-04-11T14:50:35.363Z,9.73
2018-04-11T14:53:02.984Z,9.57
2018-04-11T14:55:30.607Z,9.30
2018-04-11T14:57:58.226Z,8.60
2018-04-11T15:00:25.851Z,7.13
2018-04-11T15:02:53.479Z,4.80
2018-04-11T15:05:21.859Z,4.57
2018-04-11T15:07:50.246Z,4.10
2018-04-11T15:10:18.631Z,4.27
2018-04-11T15:12:46.242Z,3.40
2018-04-11T15:15:13.863Z,3.73
2018-04-11T15:17:41.487Z,3.93
2018-04-11T15:20:09.111Z,3.10
2018-04-11T15:22:36.727Z,3.17
2018-04-11T15:25:04.342Z,3.23
2018-04-11T15:27:32.003Z,3.53
2018-04-11T15:30:00.378Z,3.60
2018-04-11T15:32:28.006Z,3.60
2018-04-11T15:34:55.615Z,3.77
2018-04-11T15:37:23.243Z,3.67
2018-04-11T15:39:50.886Z,3.10
2018-04-11T15:42:18.506Z,3.63
2018-04-11T15:44:46.126Z,3.77
2018-04-11T15:47:13.796Z,3.83
2018-04-11T15:49:41.410Z,3.60
2018-04-11T15:52:09.031Z,3.80
2018-04-11T15:54:36.651Z,4.83
2018-04-11T15:57:04.263Z,5.00
2018-04-11T15:59:31.881Z,4.63
2018-04-11T16:01:59.511Z,4.23
2018-04-11T16:04:27.895Z,3.60
2018-04-11T16:06:56.375Z,3.40
2018-04-11T16:09:24.765Z,3.60
2018-04-11T16:11:53.157Z,3.40
2018-04-11T16:14:21.526Z,4.10
2018-04-11T16:16:49.916Z,3.30
2018-04-11T16:19:18.300Z,3.30
2018-04-11T16:21:46.682Z,3.50
2018-04-11T16:24:15.074Z,3.60
2018-04-11T16:26:43.450Z,3.30
2018-04-11T16:29:11.835Z,2.90
2018-04-11T16:31:40.220Z,3.23
2018-04-11T16:34:07.855Z,2.70
2018-04-11T16:36:35.475Z,3.30
2018-04-11T16:39:03.094Z,2.60
2018-04-11T16:41:30.714Z,2.80
2018-04-11T16:43:58.330Z,2.50
2018-04-11T16:46:26.714Z,2.80
2018-04-11T16:48:54.336Z,2.90
2018-04-11T16:51:21.959Z,2.93
2018-04-11T16:53:50.347Z,2.50
2018-04-11T16:56:17.968Z,2.87
2018-04-11T16:58:45.596Z,2.83
2018-04-11T17:01:13.216Z,2.63
2018-04-11T17:03:40.841Z,2.70
2018-04-11T17:06:08.467Z,2.90
2018-04-11T17:08:36.091Z,2.97
2018-04-11T17:11:03.712Z,2.90
2018-04-11T17:13:32.095Z,3.03
2018-04-11T17:15:59.710Z,3.10
2018-04-11T17:18:27.331Z,3.23
2018-04-11T17:21:06.844Z,3.20
2018-04-11T17:23:46.510Z,3.30
2018-04-11T17:26:26.138Z,3.50
2018-04-11T17:29:06.522Z,3.60
2018-04-11T17:31:34.155Z,3.60
2018-04-11T17:34:02.539Z,3.90
2018-04-11T17:36:30.933Z,4.00
2018-04-11T17:38:59.314Z,3.50
2018-04-11T17:41:27.715Z,3.70
2018-04-11T17:43:55.337Z,3.50
2018-04-11T17:46:22.958Z,3.60
2018-04-11T17:48:50.584Z,3.80
2018-04-11T17:51:18.245Z,3.70
2018-04-11T17:53:45.906Z,3.30
2018-04-11T17:56:13.551Z,3.90
2018-04-11T17:58:41.162Z,3.80
2018-04-11T18:01:08.785Z,4.00
2018-04-11T18:03:36.407Z,3.70
2018-04-11T18:06:04.030Z,3.77
2018-04-11T18:08:31.647Z,3.70
2018-04-11T18:10:59.275Z,4.00
2018-04-11T18:13:26.894Z,3.80
2018-04-11T18:15:54.517Z,3.43
2018-04-11T18:18:22.894Z,3.73
2018-04-11T18:20:51.284Z,3.50
2018-04-11T18:23:19.669Z,4.00
2018-04-11T18:25:48.054Z,4.03
2018-04-11T18:28:16.444Z,3.80
2018-04-11T18:30:47.851Z,4.30
2018-04-11T18:33:15.467Z,5.10
2018-04-11T18:35:43.086Z,4.50
2018-04-11T18:38:10.703Z,4.63
2018-04-11T18:40:38.323Z,5.10
2018-04-11T18:43:06.707Z,4.97
2018-04-11T18:45:34.327Z,4.63
2018-04-11T18:48:02.013Z,4.63
2018-04-11T18:50:29.619Z,4.20
2018-04-11T18:52:57.276Z,4.33
2018-04-11T18:55:24.920Z,4.40
2018-04-11T18:57:52.572Z,5.30
2018-04-11T19:00:20.460Z,5.03
2018-04-11T19:02:48.083Z,6.40
2018-04-11T19:05:15.716Z,5.67
2018-04-11T19:07:44.125Z,5.50
2018-04-11T19:10:11.723Z,5.53
2018-04-11T19:12:39.354Z,5.47
2018-04-11T19:15:07.735Z,6.13
2018-04-11T19:17:36.127Z,5.53
2018-04-11T19:20:03.742Z,5.53
2018-04-11T19:22:31.424Z,5.70
2018-04-11T19:24:59.050Z,6.40
2018-04-11T19:27:26.667Z,6.10
2018-04-11T19:29:55.050Z,6.60
2018-04-11T19:32:23.451Z,6.67
2018-04-11T19:34:51.832Z,6.93
2018-04-11T19:37:20.215Z,7.97
2018-04-11T19:39:47.844Z,7.20
2018-04-11T19:42:15.464Z,7.40
2018-04-11T19:44:43.092Z,11.60
2018-04-11T19:47:10.711Z,7.27
2018-04-11T19:49:38.328Z,6.50
2018-04-11T19:52:06.721Z,7.77
2018-04-11T19:54:34.352Z,8.20
2018-04-11T19:57:01.979Z,8.53
2018-04-11T19:59:29.603Z,8.37
2018-04-11T20:01:57.228Z,9.43
2018-04-11T20:04:24.851Z,8.63
2018-04-11T20:06:53.239Z,9.07
2018-04-11T20:09:20.897Z,9.10
2018-04-11T20:11:48.563Z,9.00
2018-04-11T20:14:16.955Z,8.87
2018-04-11T20:16:44.584Z,10.60
2018-04-11T20:19:12.203Z,9.80
2018-04-11T20:21:39.835Z,10.97
2018-04-11T20:24:08.233Z,10.50
2018-04-11T20:26:36.653Z,11.43
2018-04-11T20:29:04.254Z,11.00
2018-04-11T20:31:31.883Z,12.10
2018-04-11T20:33:59.516Z,12.23
2018-04-11T20:36:27.906Z,13.03
2018-04-11T20:38:55.535Z,12.63
2018-04-11T20:41:23.154Z,13.60
2018-04-11T20:43:50.778Z,14.13
2018-04-11T20:46:18.415Z,15.37
2018-04-11T20:48:46.054Z,15.00
2018-04-11T20:51:13.675Z,15.67
2018-04-11T20:53:42.070Z,16.07
2018-04-11T20:56:10.471Z,18.93
2018-04-11T20:58:38.090Z,20.50
2018-04-11T21:01:09.139Z,21.70
2018-04-11T21:03:37.611Z,21.63
2018-04-11T21:06:05.331Z,25.80
2018-04-11T21:08:33.013Z,25.80
2018-04-11T21:11:00.982Z,25.90
2018-04-11T21:13:28.643Z,26.93
2018-04-11T21:15:56.267Z,26.63
2018-04-11T21:18:23.886Z,30.80
2018-04-11T21:20:51.511Z,29.17
2018-04-11T21:23:19.906Z,31.47
2018-04-11T21:25:47.548Z,35.63
2018-04-11T21:28:18.900Z,37.43
2018-04-11T21:30:46.522Z,37.20
2018-04-11T21:33:14.151Z,34.17
2018-04-11T21:35:42.543Z,41.80
2018-04-11T21:38:10.183Z,40.20
2018-04-11T21:40:37.807Z,39.60
2018-04-11T21:43:05.431Z,35.03
2018-04-11T21:45:33.820Z,41.30
2018-04-11T21:48:02.211Z,41.37
2018-04-11T21:50:29.847Z,38.17
2018-04-11T21:52:58.242Z,38.83
2018-04-11T21:55:26.630Z,41.60
2018-04-11T21:57:55.031Z,39.13
2018-04-11T22:00:22.682Z,41.47
2018-04-11T22:02:51.078Z,45.00
2018-04-11T22:05:18.707Z,43.20
2018-04-11T22:07:46.335Z,42.53
2018-04-11T22:10:13.959Z,46.83
2018-04-11T22:12:42.359Z,48.83
2018-04-11T22:15:10.039Z,50.63
2018-04-11T22:17:37.620Z,50.63
2018-04-11T22:20:05.248Z,49.03
2018-04-11T22:22:33.639Z,49.67
2018-04-11T22:25:01.278Z,48.10
2018-04-11T22:27:28.899Z,48.23
2018-04-11T22:29:56.534Z,47.53
2018-04-11T22:32:24.931Z,44.53
2018-04-11T22:34:52.551Z,46.07
2018-04-11T22:37:20.183Z,47.00
2018-04-11T22:39:51.214Z,42.77
2018-04-11T22:42:18.883Z,49.90
2018-04-11T22:44:47.259Z,50.73
2018-04-11T22:47:15.630Z,51.33
2018-04-11T22:49:43.264Z,51.13
2018-04-11T22:52:10.888Z,52.83
2018-04-11T22:54:38.508Z,50.30
2018-04-11T22:57:06.149Z,52.17
2018-04-11T22:59:33.775Z,62.83
2018-04-11T23:02:01.404Z,59.33
2018-04-11T23:04:29.807Z,64.30
2018-04-11T23:06:57.430Z,62.53
2018-04-11T23:09:25.069Z,65.13
2018-04-11T23:11:52.695Z,66.10
2018-04-11T23:14:21.096Z,64.87
2018-04-11T23:16:48.720Z,65.10
2018-04-11T23:19:16.353Z,65.23
2018-04-11T23:21:43.984Z,66.57
2018-04-11T23:24:11.611Z,68.93
2018-04-11T23:26:39.294Z,62.63
2018-04-11T23:29:06.887Z,64.90
2018-04-11T23:31:34.519Z,64.53
2018-04-11T23:34:02.151Z,64.27
2018-04-11T23:36:29.783Z,66.13
2018-04-11T23:38:57.419Z,64.27
2018-04-11T23:41:25.038Z,55.60
2018-04-11T23:43:52.667Z,57.50
2018-04-11T23:46:21.062Z,56.73
2018-04-11T23:48:48.686Z,62.93
2018-04-11T23:51:16.319Z,58.77
2018-04-11T23:53:43.947Z,59.03
2018-04-11T23:56:12.342Z,63.80
2018-04-11T23:58:39.976Z,65.03
